Latest Weather Observations for Braidwood

IDN60901

Issued at 10:51 pm EST Sunday 21 July 2019 (issued every 10 minutes, with the page automatically refreshed every 10 minutes)

About weather observations | Map of Canberra area stations | Latest observations for Canberra area | Other Formats
Station Details ID: 069132 Name: BRAIDWOOD RACECOURSE AWS Lat: -35.43 Lon: 149.78 Height: 665.2 m
Data from the previous 72 hours. | See also: Recent months at Braidwood
Date/Time
EST
Temp
°C
App
Temp
°C
Dew
Point
°C
Rel
Hum
%
Delta-T
°C
Wind Press
QNH
hPa
Press
MSL
hPa
Rain since
9am
mm
Dir  Spd
km/h
Gust
km/h
Spd
kts
Gust
kts
21/10:30pm 9.6 6.3 -0.9 48 4.3 NW 6 11 3 6 1015.5 1016.6 0.2
21/10:00pm 12.0 7.1 -0.2 43 5.2 NW 15 28 8 15 1015.0 1016.0 0.2
21/09:30pm 11.4 6.5 -0.7 43 5.1 NW 15 24 8 13 1014.7 1015.7 0.2
21/09:00pm 10.8 6.3 -0.3 46 4.7 NW 13 22 7 12 1014.7 1015.7 0.2
21/08:30pm 11.6 7.1 -0.2 44 5.0 NW 13 20 7 11 1014.7 1015.7 0.2
21/08:00pm 11.6 6.0 -0.2 44 5.0 NW 19 30 10 16 1014.7 1015.7 0.2
21/07:30pm 11.2 6.0 0.0 46 4.7 NW 17 28 9 15 1014.2 1015.2 0.2
21/07:00pm 10.9 5.8 0.6 49 4.4 NW 17 24 9 13 1014.2 1015.2 0.2
21/06:30pm 10.9 5.8 0.6 49 4.4 NW 17 28 9 15 1014.2 1015.2 0.2
21/06:00pm 11.6 5.9 0.7 47 4.7 NW 20 35 11 19 1013.9 1015.0 0.2
21/05:30pm 11.9 6.7 0.1 44 5.0 NW 17 28 9 15 1013.5 1014.5 0.2
21/05:00pm 12.5 7.2 -0.7 40 5.6 NW 17 30 9 16 1013.6 1014.6 0.2
21/04:30pm 13.4 8.4 -1.0 37 6.1 NW 15 24 8 13 1013.4 1014.4 0.2
21/04:00pm 14.2 7.8 -1.4 34 6.6 NW 22 32 12 17 1013.4 1014.4 0.2
21/03:30pm 14.1 5.9 -1.1 35 6.5 NW 32 54 17 29 1013.1 1014.1 0.2
21/03:24pm 14.2 5.9 -1.4 34 6.6 NW 32 54 17 29 1013.0 1014.0 0.2
21/03:00pm 14.4 6.2 -1.2 34 6.6 NW 32 48 17 26 1013.1 1014.1 0.2
21/02:30pm 14.6 6.4 -1.1 34 6.7 NW 32 46 17 25 1013.0 1014.0 0.2
21/02:24pm 14.8 7.4 -0.9 34 6.7 NW 28 46 15 25 1012.9 1013.9 0.2
21/02:00pm 14.6 6.8 -0.7 35 6.6 NW 30 44 16 24 1013.0 1014.0 0.2
21/01:55pm 14.8 6.7 -0.1 36 6.5 NW 32 52 17 28 1013.0 1014.0 0.2
21/01:30pm 14.7 6.0 -0.6 35 6.6 WNW 35 50 19 27 1013.1 1014.1 0.2
21/01:00pm 14.7 6.7 0.2 37 6.4 NW 32 52 17 28 1013.2 1014.2 0.0
21/12:30pm 14.0 5.4 -0.1 38 6.1 NW 35 56 19 30 1013.7 1014.7 0.0
21/12:00pm 13.8 4.9 0.8 41 5.7 NW 37 61 20 33 1014.3 1015.3 0.0
21/11:40am 13.3 5.0 0.0 40 5.7 NW 33 59 18 32 1014.6 1015.6 0.0
21/11:30am 13.2 4.7 0.6 42 5.5 NW 35 52 19 28 1014.9 1015.9 0.0
21/11:03am 12.7 5.0 -0.2 41 5.5 NW 30 50 16 27 1015.3 1016.4 0.0
21/11:00am 12.9 5.6 0.0 41 5.6 NW 28 41 15 22 1015.3 1016.4 0.0
21/10:30am 12.5 5.7 0.6 44 5.2 NW 26 37 14 20 1016.0 1017.0 0.0
21/10:02am 11.6 4.4 0.7 47 4.7 NW 28 46 15 25 1016.3 1017.3 0.0
21/10:00am 11.7 4.1 0.8 47 4.7 NW 30 46 16 25 1016.3 1017.3 0.0
21/09:30am 10.6 4.1 0.3 49 4.4 NW 24 37 13 20 1016.7 1017.8 0.0
21/09:00am 9.6 3.1 0.2 52 3.9 NW 24 37 13 20 1016.8 1017.9 0.0
21/08:30am 8.7 2.5 -0.1 54 3.6 NW 22 33 12 18 1016.7 1017.8 0.0
21/08:00am 8.0 2.2 -0.2 56 3.3 NW 20 32 11 17 1016.2 1017.2 0.0
21/07:30am 6.6 1.3 -0.4 61 2.8 NW 17 26 9 14 1016.3 1017.3 0.0
21/07:00am 5.8 2.2 0.6 69 2.1 NW 9 19 5 10 1016.4 1017.4 0.0
21/06:30am 3.2 1.2 -0.3 78 1.4 CALM 0 2 0 1 1016.4 1017.4 0.0
21/06:00am 4.1 1.3 -0.3 73 1.7 N 4 6 2 3 1016.3 1017.3 0.0
21/05:30am 5.0 2.0 0.6 73 1.8 NNW 6 9 3 5 1016.3 1017.3 0.0
21/05:00am 6.1 3.0 1.1 70 2.1 NNW 7 17 4 9 1016.1 1017.1 0.0
21/04:30am 7.0 2.7 1.3 67 2.4 NW 13 22 7 12 1015.9 1016.9 0.0
21/04:00am 7.7 3.5 1.5 65 2.6 NW 13 26 7 14 1016.1 1017.1 0.0
21/03:30am 7.5 3.3 1.6 66 2.5 NW 13 24 7 13 1016.1 1017.1 0.0
21/03:00am 5.7 3.0 2.7 81 1.3 N 6 24 3 13 1016.2 1017.2 0.0
21/02:30am 4.1 1.5 1.1 81 1.2 NNE 4 7 2 4 1016.4 1017.4 0.0
21/02:00am 4.6 1.8 1.8 82 1.2 N 6 9 3 5 1016.5 1017.6 0.0
21/01:30am 4.4 1.4 1.9 84 1.0 NNE 7 13 4 7 1016.6 1017.7 0.0
21/01:00am 4.4 1.4 2.1 85 1.0 NNE 7 11 4 6 1016.9 1018.0 0.0
21/12:30am 3.4 0.6 1.9 90 0.6 NNE 6 13 3 7 1017.4 1018.4 0.0
21/12:00am 3.0 0.1 1.5 90 0.6 N 6 9 3 5 1017.6 1018.6 0.0
 
Date/Time
EST
Temp
°C
App
Temp
°C
Dew
Point
°C
Rel
Hum
%
Delta-T
°C
Wind Press
QNH
hPa
Press
MSL
hPa
Rain since
9am
mm
Dir  Spd
km/h
Gust
km/h
Spd
kts
Gust
kts
20/11:30pm 3.1 0.6 1.5 89 0.6 N 4 9 2 5 1018.0 1019.1 0.0
20/11:00pm 3.7 1.2 1.7 87 0.8 NNW 4 7 2 4 1018.3 1019.4 0.0
20/10:30pm 3.7 0.9 2.2 90 0.6 N 6 11 3 6 1018.5 1019.6 0.0
20/10:00pm 2.9 0.4 1.7 92 0.5 NNW 4 9 2 5 1018.6 1019.7 0.0
20/09:30pm 2.6 0.4 0.8 88 0.7 N 2 4 1 2 1019.0 1020.0 0.0
20/09:00pm 3.5 0.6 1.4 86 0.8 NNW 6 13 3 7 1019.1 1020.2 0.0
20/08:30pm 3.5 0.5 1.7 88 0.7 NNW 7 11 4 6 1019.0 1020.0 0.0
20/08:00pm 3.6 1.4 1.2 84 1.0 NNW 2 7 1 4 1019.0 1020.0 0.0
20/07:30pm 4.1 1.6 1.8 85 0.9 N 4 7 2 4 1018.8 1019.9 0.0
20/07:00pm 3.6 1.0 0.7 81 1.2 NNW 4 6 2 3 1019.2 1020.3 0.0
20/06:30pm 4.2 1.6 0.9 79 1.3 NNW 4 6 2 3 1019.2 1020.3 0.0
20/06:00pm 4.6 2.2 -0.2 71 1.9 NNW 2 4 1 2 1019.2 1020.3 0.0
20/05:30pm 6.2 3.4 -0.3 63 2.6 NNW 4 6 2 3 1019.1 1020.2 0.0
20/05:00pm 8.9 5.6 -0.1 53 3.7 NNW 7 13 4 7 1019.0 1020.0 0.0
20/04:30pm 11.3 8.0 0.4 47 4.7 NNW 7 15 4 8 1018.8 1019.9 0.0
20/04:00pm 12.3 8.3 0.7 45 5.0 NNW 11 19 6 10 1019.0 1020.0 0.0
20/03:30pm 13.0 8.9 0.1 41 5.6 NNW 11 20 6 11 1019.0 1020.0 0.0
20/03:00pm 13.9 10.6 0.2 39 6.0 NNW 7 19 4 10 1018.8 1019.9 0.0
20/02:30pm 14.2 10.5 -0.3 37 6.3 N 9 19 5 10 1019.1 1020.2 0.0
20/02:00pm 14.1 9.5 -1.1 35 6.4 NNW 13 22 7 12 1019.2 1020.3 0.0
20/01:30pm 14.0 10.4 0.3 39 6.0 N 9 19 5 10 1019.3 1020.4 0.0
20/01:00pm 13.7 10.2 1.4 43 5.5 N 9 17 5 9 1019.6 1020.7 0.0
20/12:30pm 13.1 9.7 2.1 47 5.0 N 9 17 5 9 1020.0 1021.1 0.0
20/12:00pm 11.8 8.3 1.2 48 4.6 NNW 9 15 5 8 1020.7 1021.8 0.0
20/11:30am 10.8 8.1 2.6 57 3.7 N 6 13 3 7 1021.2 1022.3 0.0
20/11:00am 8.8 6.2 3.4 69 2.4 NNW 6 11 3 6 1021.6 1022.8 0.0
20/10:30am 4.8 2.5 2.8 87 0.9 NNW 4 7 2 4 1022.2 1023.3 0.0
20/10:00am 3.5 2.0 2.8 95 0.3 CALM 0 0 0 0 1022.5 1023.6 0.0
20/09:37am 2.4 0.7 2.0 97 0.2 CALM 0 0 0 0 1022.5 1023.6 0.0
20/09:30am 1.5 -0.3 1.1 97 0.2 CALM 0 0 0 0 1022.5 1023.6 0.0
20/09:00am 0.1 -1.9 -0.3 97 0.2 CALM 0 4 0 2 1022.7 1023.8 0.2
20/08:30am -0.5 -2.6 -0.9 97 0.1 CALM 0 2 0 1 1022.6 1023.7 0.0
20/08:00am -0.7 -2.8 -1.1 97 0.1 CALM 0 2 0 1 1022.4 1023.5 0.0
20/07:30am -0.7 -2.8 -1.1 97 0.1 CALM 0 2 0 1 1022.0 1023.2 0.0
20/07:00am -2.2 -4.5 -2.6 97 0.0 CALM 0 0 0 0 1021.9 1023.1 0.0
20/06:30am -2.8 -5.2 -3.2 97 0.0 CALM 0 0 0 0 1021.7 1022.9 0.0
20/06:00am -2.8 -5.2 -3.2 97 0.0 CALM 0 4 0 2 1021.6 1022.8 0.0
20/05:30am -2.3 -4.6 -2.7 97 0.0 CALM 0 0 0 0 1021.8 1023.0 0.0
20/05:00am -1.0 -3.2 -1.4 97 0.1 CALM 0 0 0 0 1022.0 1023.2 0.0
20/04:30am -1.3 -3.5 -1.7 97 0.1 CALM 0 0 0 0 1022.0 1023.2 0.0
20/04:00am -1.2 -3.4 -1.6 97 0.1 CALM 0 0 0 0 1022.0 1023.2 0.0
20/03:30am -0.4 -2.5 -0.8 97 0.1 CALM 0 2 0 1 1021.9 1023.1 0.0
20/03:00am 0.8 -1.1 0.4 97 0.2 CALM 0 4 0 2 1022.0 1023.2 0.0
20/02:30am 0.5 -1.5 0.1 97 0.2 CALM 0 0 0 0 1022.4 1023.5 0.0
20/02:00am 0.2 -1.8 -0.2 97 0.1 CALM 0 0 0 0 1022.5 1023.6 0.0
20/01:30am 0.0 -2.0 -0.4 97 0.1 CALM 0 0 0 0 1022.6 1023.7 0.0
20/01:00am -0.8 -3.0 -1.2 97 0.1 CALM 0 0 0 0 1022.5 1023.6 0.0
20/12:30am -0.8 -3.0 -1.2 97 0.1 CALM 0 0 0 0 1022.7 1023.8 0.0
20/12:00am -1.5 -3.7 -1.9 97 0.1 CALM 0 0 0 0 1022.6 1023.7 0.0
 
Date/Time
EST
Temp
°C
App
Temp
°C
Dew
Point
°C
Rel
Hum
%
Delta-T
°C
Wind Press
QNH
hPa
Press
MSL
hPa
Rain since
9am
mm
Dir  Spd
km/h
Gust
km/h
Spd
kts
Gust
kts
19/11:30pm -2.1 -4.8 -2.6 96 0.1 SSE 2 6 1 3 1022.7 1023.8 0.0
19/11:25pm -2.3 -5.0 -2.8 96 0.1 SSE 2 6 1 3 1022.7 1023.8 0.0
19/11:00pm -1.6 -3.9 -2.3 95 0.2 CALM 0 0 0 0 1022.7 1023.8 0.0
19/10:30pm -1.1 -3.3 -1.8 95 0.2 CALM 0 0 0 0 1022.7 1023.8 0.0
19/10:00pm -0.3 -2.4 -1.0 95 0.2 CALM 0 0 0 0 1022.6 1023.7 0.0
19/09:30pm 1.1 -0.8 0.4 95 0.3 CALM 0 0 0 0 1022.4 1023.5 0.0
19/09:00pm 1.0 -1.0 0.0 93 0.4 CALM 0 2 0 1 1022.4 1023.5 0.0
19/08:30pm 1.2 -0.9 -0.6 88 0.7 CALM 0 2 0 1 1022.3 1023.4 0.0
19/08:00pm 2.9 0.7 1.3 89 0.6 N 2 4 1 2 1022.0 1023.2 0.0
19/07:30pm 3.3 1.5 1.2 86 0.8 CALM 0 2 0 1 1021.8 1023.0 0.0
19/07:00pm 4.5 2.4 2.0 84 1.0 N 2 4 1 2 1021.5 1022.6 0.0
19/06:30pm 5.0 2.6 2.4 83 1.1 N 4 9 2 5 1021.3 1022.4 0.0
19/06:00pm 5.4 3.7 1.9 78 1.5 CALM 0 0 0 0 1020.8 1021.9 0.0
19/05:30pm 6.5 3.6 1.6 71 2.1 NW 6 11 3 6 1020.3 1021.5 0.0
19/05:00pm 8.8 6.1 2.4 64 2.8 NW 6 9 3 5 1020.1 1021.2 0.0
19/04:30pm 10.9 7.0 3.5 60 3.4 NW 13 17 7 9 1019.8 1020.9 0.0
19/04:00pm 11.3 6.1 3.3 58 3.6 WNW 20 28 11 15 1019.7 1020.8 0.0
19/03:30pm 12.1 8.3 3.9 57 3.8 NW 13 20 7 11 1019.5 1020.6 0.0
19/03:00pm 12.2 8.0 3.7 56 3.9 NW 15 24 8 13 1019.5 1020.6 0.0
19/02:30pm 12.1 7.0 3.1 54 4.1 NW 19 30 10 16 1019.2 1020.3 0.0
19/02:00pm 12.0 6.3 3.0 54 4.1 WNW 22 30 12 16 1019.0 1020.0 0.0
19/01:30pm 11.6 7.2 2.9 55 3.9 NW 15 26 8 14 1019.2 1020.3 0.0
19/01:00pm 10.9 5.1 2.2 55 3.9 WNW 22 30 12 16 1019.2 1020.3 0.0
19/12:30pm 10.9 5.7 2.7 57 3.7 NW 19 30 10 16 1019.4 1020.5 0.0
19/12:00pm 10.3 5.6 2.9 60 3.3 NW 17 28 9 15 1019.8 1020.9 0.0
19/11:30am 9.6 4.8 2.7 62 3.1 NW 17 24 9 13 1020.0 1021.1 0.0
19/11:00am 8.8 4.0 2.6 65 2.7 NW 17 26 9 14 1020.6 1021.7 0.0
19/10:30am 8.0 3.9 2.5 68 2.4 NW 13 24 7 13 1020.6 1021.7 0.0
19/10:00am 7.2 1.8 2.3 71 2.1 WNW 20 32 11 17 1020.6 1021.7 0.0
19/09:30am 6.9 3.6 2.2 72 2.0 NW 9 19 5 10 1020.3 1021.5 0.0
19/09:00am 5.4 1.9 1.1 74 1.8 NNW 9 15 5 8 1020.0 1021.1 0.0
19/08:30am 4.3 1.3 1.0 79 1.3 NNW 6 11 3 6 1019.6 1020.7 -
19/08:00am 2.5 -0.6 0.1 84 0.9 NNW 6 11 3 6 1019.5 1020.6 -
19/07:30am 1.6 -1.7 0.0 89 0.6 NNW 7 15 4 8 1019.0 1020.0 -
19/07:00am 1.6 -1.7 -0.2 88 0.7 NNW 7 13 4 7 1018.8 1019.9 -
19/06:30am 1.4 -1.8 -0.5 87 0.7 NNW 6 13 3 7 1018.6 1019.7 -
19/06:00am 1.8 -2.4 -0.6 84 0.9 NNW 11 19 6 10 1018.3 1019.4 -
19/05:30am 2.0 -1.4 -0.4 84 0.9 NNW 7 13 4 7 1018.3 1019.4 -
19/05:00am 0.5 -2.1 -1.4 87 0.7 NNE 2 7 1 4 1017.9 1019.0 -
19/04:30am 0.9 -2.0 -1.0 87 0.7 N 4 7 2 4 1017.8 1018.9 -
19/04:00am 1.6 -1.6 -0.3 87 0.7 NW 6 9 3 5 1017.6 1018.6 -
19/03:30am 1.1 -2.8 -1.3 84 0.9 NW 9 13 5 7 1017.4 1018.4 -
19/03:00am 2.2 -1.9 -0.4 83 1.0 NW 11 20 6 11 1017.5 1018.5 -
19/02:30am 1.7 -1.1 -0.2 87 0.7 N 4 9 2 5 1016.8 1017.9 -
19/02:00am 1.9 -1.5 -0.3 85 0.8 N 7 15 4 8 1017.1 1018.2 -
19/01:30am 2.0 -2.1 -0.1 86 0.8 NW 11 17 6 9 1017.0 1018.1 -
19/01:00am 1.9 -2.2 -0.3 85 0.8 NNW 11 20 6 11 1016.9 1018.0 -
19/12:30am 1.6 -1.2 -0.5 86 0.8 N 4 9 2 5 1016.8 1017.9 -
19/12:00am 1.2 -1.3 -0.7 87 0.7 N 2 9 1 5 1017.1 1018.2 0.0
 
Date/Time
EST
Temp
°C
App
Temp
°C
Dew
Point
°C
Rel
Hum
%
Delta-T
°C
Wind Press
QNH
hPa
Press
MSL
hPa
Rain since
9am
mm
Dir  Spd
km/h
Gust
km/h
Spd
kts
Gust
kts
18/11:30pm 1.2 -1.6 -0.3 90 0.6 NNW 4 7 2 4 1017.9 1019.0 0.0
18/11:00pm 1.4 -1.7 0.1 91 0.5 N 6 9 3 5 1017.5 1018.5 0.0

Latest Capital City Observations: Canberra | Sydney | Melbourne | Brisbane | Adelaide | Perth | Hobart | Darwin

Other formats

Comma delimited format used in spreadsheet applications
http://www.bom.gov.au/fwo/IDN60903/IDN60903.94927.axf

JavaScript Object Notation format (JSON) in row-major order
http://www.bom.gov.au/fwo/IDN60903/IDN60903.94927.json

Data quality

Most of these data are generated automatically and are frequently updated. Quality checks on data are not normally performed. It is possible for incorrect values to appear. Refer to information at About Latest Weather Observations and please check the disclaimer before using these data.